CheckWX is a tool to help pilots better visualize weather data.  It is not intended as a substitute for an official pre-flight weather briefing.

20:26:18 UTC

HESG METAR
Sohag Airport
Sohag, Egypt
Current

1 hour ago

HESG 281900Z 32007KT CAVOK 15/02 Q1019 NOSIG
Observed
Jan-28 @ 19:00 UTC
Wind
  • 320° at 7 KTS
Visibility
10,000+ meters
Flight Rules
VFR
Cloud Levels
  • Clear skies
Temperature
15°C / 59°F
Dewpoint
C / 36°F
Humidity
42%
Altimeter
30.09" Hg
Pressure
1018.92 hPa
Previous

2 hours ago

HESG 281800Z 30008KT CAVOK 16/01 Q1018 NOSIG
Observed
Jan-28 @ 18:00 UTC
Wind
  • 300° at 8 KTS
Visibility
10,000+ meters
Flight Rules
VFR
Cloud Levels
  • Clear skies
Temperature
16°C / 61°F
Dewpoint
C / 34°F
Humidity
36%
Altimeter
30.06" Hg
Pressure
1017.92 hPa
Previous

3 hours ago

HESG 281700Z 32008KT CAVOK 18/00 Q1018 NOSIG
Observed
Jan-28 @ 17:00 UTC
Wind
  • 320° at 8 KTS
Visibility
10,000+ meters
Flight Rules
VFR
Cloud Levels
  • Clear skies
Temperature
18°C / 64°F
Dewpoint
C / 32°F
Humidity
30%
Altimeter
30.06" Hg
Pressure
1017.92 hPa